Date,TemperatureHighF,TemperatureAvgF,TemperatureLowF,DewpointHighF,DewpointAvgF,DewpointLowF,HumidityHigh,HumidityAvg,HumidityLow,PressureMaxIn,PressureMinIn,WindSpeedMaxMPH,WindSpeedAvgMPH,GustSpeedMaxMPH,PrecipitationSumIn
2013-5-1,63,58,45,40,38,36,81,49,38,0.00,40.00,5,2,13,0.00
2013-5-2,65,53,40,46,41,37,93,69,44,0.00,40.00,4,2,17,0.00
2013-5-3,71,54,39,50,44,38,98,75,38,0.00,40.00,4,2,15,0.01
2013-5-4,79,60,45,52,46,43,93,64,31,0.00,40.00,4,2,13,0.02
2013-5-5,78,64,48,53,47,43,84,59,36,0.00,40.00,3,2,11,0.01
2013-5-6,83,67,52,51,47,43,77,52,29,0.00,40.00,4,2,9,0.00
2013-5-7,72,59,48,55,50,46,94,75,54,0.00,40.00,5,2,12,0.00
2013-5-8,67,56,48,54,50,47,97,84,63,0.00,40.00,4,2,10,0.00
2013-5-9,71,56,46,56,50,45,100,84,57,0.00,40.00,4,2,12,0.00
2013-5-10,75,59,45,59,49,-100,100,77,55,0.00,40.00,5,2,10,0.00
2013-5-11,79,62,52,58,51,-100,96,71,48,0.00,40.00,4,2,10,0.00
2013-5-12,68,61,56,61,56,51,100,87,64,0.00,40.00,4,1,11,0.03
2013-5-13,66,56,48,56,52,46,98,85,62,0.00,40.00,11,2,31,0.25
2013-5-14,66,54,45,48,44,37,100,74,34,0.00,40.00,3,1,9,0.03
2013-5-15,67,55,44,51,46,43,100,76,46,0.00,40.00,5,1,12,0.17
2013-5-16,68,55,51,55,37,-100,100,83,62,0.00,40.00,4,1,11,0.22
2013-5-17,60,54,50,52,47,-100,98,85,66,0.00,40.00,5,2,13,0.22
2013-5-18,64,56,51,53,49,45,100,81,60,0.00,40.00,4,1,11,0.34
2013-5-19,67,56,51,51,49,47,91,78,54,0.00,40.00,3,1,9,0.02
2013-5-20,67,54,42,54,48,42,99,80,60,0.00,40.00,3,2,12,0.00
2013-5-21,56,50,48,50,48,45,99,92,80,0.00,40.00,3,1,11,0.47
2013-5-22,54,49,45,48,46,45,100,89,73,0.00,40.00,4,2,12,0.38
2013-5-23,59,50,42,50,45,42,100,85,63,0.00,40.00,5,1,16,0.41
2013-5-24,63,52,40,47,44,40,100,78,51,0.00,40.00,5,1,10,0.01
2013-5-25,67,56,49,49,47,44,100,76,49,0.00,40.00,4,1,12,0.05
2013-5-26,63,53,49,56,51,47,100,93,77,0.00,40.00,2,0,7,0.45
2013-5-27,61,56,53,57,53,52,98,90,79,0.00,40.00,3,1,11,0.21
2013-5-28,62,57,53,52,50,46,91,77,65,0.00,40.00,5,2,17,0.03
2013-5-29,57,53,50,51,50,48,100,88,76,0.00,40.00,4,1,11,0.05
2013-5-30,61,54,48,51,50,47,100,87,64,0.00,40.00,2,0,8,0.74
2013-5-31,67,57,48,52,49,45,100,79,48,0.00,40.00,3,1,9,0.29
2013-6-1,69,58,47,54,49,46,98,76,50,0.00,40.00,3,1,11,0.01
2013-6-2,69,60,52,53,50,46,90,70,49,0.00,40.00,4,2,12,0.00
2013-6-3,71,60,47,54,51,47,100,75,50,0.00,40.00,5,2,12,0.00
2013-6-4,79,62,48,55,52,46,99,72,41,0.00,40.00,4,2,10,0.00
2013-6-5,76,62,50,57,53,46,97,74,51,0.00,40.00,4,1,11,0.00
2013-6-6,77,63,50,57,52,34,100,72,36,0.00,40.00,4,2,12,0.00
2013-6-7,69,60,54,52,47,40,74,63,52,0.00,40.00,6,2,13,0.00
2013-6-8,67,58,48,49,47,44,92,69,51,0.00,40.00,4,2,13,0.00
2013-6-9,67,58,49,49,47,42,93,69,46,0.00,40.00,6,2,14,0.00
2013-6-10,71,58,42,50,46,40,97,68,47,0.00,40.00,4,2,13,0.00
2013-6-11,68,57,51,52,48,44,98,74,45,0.00,40.00,5,1,12,0.17
2013-6-12,68,56,50,55,51,47,100,84,54,0.00,40.00,4,1,12,0.50
2013-6-13,70,58,51,53,50,46,99,77,46,0.00,40.00,4,2,12,0.05
2013-6-14,68,58,51,51,50,49,97,76,52,0.00,40.00,4,1,12,0.04
2013-6-15,74,60,46,58,52,46,99,76,55,0.00,40.00,3,2,12,0.02
2013-6-16,73,61,50,58,53,49,98,79,54,0.00,40.00,4,2,12,0.03
2013-6-17,77,62,50,56,53,50,100,76,42,0.00,40.00,4,1,13,0.05
2013-6-18,74,62,54,56,51,45,100,71,36,0.00,40.00,4,1,13,0.05
2013-6-19,66,60,55,52,50,46,85,70,51,0.00,40.00,5,2,15,0.01
2013-6-20,58,54,52,53,51,47,97,91,68,0.00,40.00,5,3,13,0.98
2013-6-22,77,68,53,57,55,53,99,66,49,0.00,40.00,4,2,11,0.00
2013-6-23,71,64,55,64,58,53,98,84,67,0.00,40.00,2,1,6,0.06
2013-6-24,67,62,57,62,57,51,100,86,63,0.00,40.00,5,2,16,0.30
2013-6-25,73,62,56,59,56,53,100,83,50,0.00,40.00,5,2,16,0.21
2013-6-26,75,64,57,59,56,53,95,76,53,0.00,40.00,4,2,21,0.07
2013-6-27,72,63,58,62,59,56,98,86,72,0.00,40.00,4,2,14,0.10
2013-6-28,79,68,58,67,61,57,98,81,62,0.00,40.00,3,1,8,0.01
2013-6-29,83,71,60,65,63,59,98,76,54,0.00,40.00,4,2,11,0.00
2013-6-30,87,74,60,69,64,59,99,75,54,0.00,40.00,3,1,9,0.00
2013-7-1,83,72,60,66,60,55,94,69,52,0.00,40.00,4,2,13,0.00
2013-7-2,78,66,57,59,55,47,91,70,48,0.00,40.00,4,2,11,0.00
2013-7-3,78,64,50,57,51,45,93,64,41,0.00,40.00,4,2,13,0.00
2013-7-4,71,62,52,54,51,48,90,71,48,0.00,40.00,4,2,11,0.00
2013-7-5,75,63,49,57,53,48,97,73,45,0.00,40.00,4,2,11,0.00
2013-7-6,78,63,51,60,54,50,98,76,42,0.00,40.00,4,1,12,0.00
2013-7-7,79,67,53,59,55,51,95,68,48,0.00,40.00,3,2,12,0.00
2013-7-8,79,63,54,60,56,52,94,78,50,0.00,40.00,4,2,11,0.00
2013-7-9,81,66,53,62,56,48,98,73,48,0.00,40.00,4,2,12,0.00
2013-7-10,72,62,54,55,50,-100,88,68,54,0.00,40.00,5,2,13,0.00
2013-7-11,69,60,52,49,47,44,78,64,40,0.00,40.00,5,2,14,0.00
2013-7-12,72,59,47,53,48,45,93,70,45,0.00,40.00,5,2,18,0.00
2013-7-13,78,62,46,53,48,45,97,66,34,0.00,40.00,4,2,12,0.00
2013-7-14,79,64,48,53,49,44,96,64,32,0.00,40.00,5,2,12,0.00
2013-7-15,83,64,48,57,49,46,94,66,30,0.00,40.00,6,2,15,0.00
2013-7-16,84,77,68,59,56,52,73,49,38,0.00,40.00,3,2,10,0.00
2013-7-17,75,68,59,60,57,54,90,69,55,0.00,40.00,6,3,17,0.01
2013-7-18,77,66,58,59,55,52,86,69,52,0.00,40.00,5,2,12,0.01
2013-7-19,79,63,52,62,56,51,97,78,53,0.00,40.00,4,2,12,0.00
2013-7-20,76,61,52,60,53,-100,96,78,57,0.00,40.00,4,2,11,0.00
2013-7-21,77,61,51,60,55,50,99,81,53,0.00,40.00,4,2,11,0.00
2013-7-22,79,64,53,62,56,52,96,78,51,0.00,40.00,4,2,12,0.00
2013-7-23,83,66,53,60,56,51,100,74,41,0.00,40.00,4,2,11,0.00
2013-7-24,81,65,52,60,54,51,97,70,47,0.00,40.00,4,2,12,0.00
2013-7-25,82,64,51,59,54,49,98,72,43,0.00,40.00,4,2,11,0.00
2013-7-26,81,62,49,57,51,45,95,71,34,0.00,40.00,4,2,12,0.00
2013-7-27,78,65,48,56,51,46,95,65,39,0.00,40.00,4,2,13,0.00
2013-7-28,75,63,49,56,52,47,94,71,46,0.00,40.00,5,2,13,0.00
2013-7-29,76,64,52,58,54,51,96,74,51,0.00,40.00,3,1,11,0.00
2013-7-30,76,63,52,59,55,51,97,78,54,0.00,40.00,3,1,10,0.00
2013-7-31,73,62,52,61,56,51,99,83,61,0.00,40.00,3,1,9,0.00
2013-8-1,65,61,54,60,55,52,98,83,72,0.00,40.00,4,2,13,0.00
2013-8-2,64,60,56,59,56,54,99,90,80,0.00,40.00,2,1,10,0.71
2013-8-3,74,65,58,59,58,56,100,79,59,0.00,40.00,5,1,13,0.02
2013-8-4,79,66,55,62,58,54,98,78,54,0.00,40.00,4,1,11,0.00
2013-8-5,82,66,55,63,58,53,99,77,49,0.00,40.00,4,1,11,0.00
2013-8-6,82,64,49,60,54,48,98,73,43,0.00,40.00,4,1,10,0.00
2013-8-7,83,67,53,60,55,52,96,69,41,0.00,40.00,3,2,11,0.00
2013-8-8,80,67,57,60,56,49,92,71,44,0.00,40.00,5,2,13,0.00
2013-8-9,81,65,51,61,56,50,98,74,50,0.00,40.00,4,2,11,0.00
2013-8-10,80,67,59,64,59,55,94,75,55,0.00,40.00,4,2,12,0.05
2013-8-11,73,62,56,60,56,53,96,81,62,0.00,40.00,3,1,8,0.06
2013-8-12,76,64,55,59,55,53,92,75,53,0.00,40.00,3,1,11,0.02
2013-8-13,80,64,53,58,53,-100,96,72,46,0.00,40.00,4,1,10,0.00
2013-8-14,81,65,53,64,56,-100,99,81,45,0.00,40.00,2,1,10,0.08
2013-8-15,72,62,63,65,52,-100,98,87,75,0.00,40.00,3,1,11,0.11
2013-8-16,84,68,59,64,57,-100,100,76,50,0.00,40.00,3,1,10,0.00
2013-8-17,78,67,61,61,56,-100,87,72,54,0.00,40.00,5,2,13,0.00
2013-8-18,79,66,60,59,55,50,87,68,50,0.00,40.00,5,1,15,0.00
2013-8-19,73,63,58,56,48,-100,86,67,51,0.00,40.00,4,1,11,0.00
2013-8-20,78,62,50,57,50,-100,98,70,39,0.00,40.00,4,2,14,0.00
2013-8-21,81,64,49,57,53,47,95,70,42,0.00,40.00,5,2,13,0.00
2013-8-22,81,67,52,59,54,51,96,68,44,0.00,40.00,3,1,9,0.00
2013-8-23,74,65,56,58,55,52,94,72,52,0.00,40.00,7,2,18,0.00
2013-8-24,74,63,56,59,54,-100,99,77,47,0.00,40.00,4,1,11,0.04
2013-8-25,76,62,50,58,54,49,98,77,44,0.00,40.00,4,1,11,0.01
2013-8-26,78,67,59,58,56,49,92,70,45,0.00,40.00,6,1,16,0.01
2013-8-27,76,64,61,59,57,56,88,79,56,0.00,40.00,3,2,8,0.01
2013-8-28,79,72,64,65,63,62,98,76,60,0.00,40.00,3,1,8,0.61
2013-8-29,74,67,62,64,62,58,100,86,65,0.00,40.00,5,2,22,0.34
2013-8-30,77,68,59,60,57,54,91,69,47,0.00,40.00,5,2,25,0.01
2013-8-31,78,63,53,61,55,-100,98,79,56,0.00,40.00,3,1,11,0.00
2013-9-1,81,65,53,61,57,53,100,77,49,0.00,40.00,5,2,11,0.00
2013-9-2,80,67,57,61,58,55,99,76,51,0.00,40.00,3,1,11,0.00
2013-9-3,73,64,58,65,60,56,100,89,68,0.00,40.00,3,1,7,0.21
2013-9-4,72,62,56,63,59,56,100,91,71,0.00,40.00,4,1,12,0.03
2013-9-5,70,60,55,64,59,55,100,95,78,0.00,40.00,3,1,11,0.16
2013-9-6,73,64,60,63,61,60,100,92,69,0.00,40.00,2,1,10,0.68
2013-9-7,76,65,59,63,60,-100,100,85,59,0.00,40.00,3,1,11,0.12
2013-9-8,78,65,54,62,59,54,100,84,56,0.00,40.00,3,1,10,0.02
2013-9-9,77,64,56,63,59,56,100,86,57,0.00,40.00,3,1,10,0.00
2013-9-10,78,64,54,65,59,54,100,85,60,0.00,40.00,2,1,10,0.00
2013-9-11,86,71,58,65,61,57,99,75,46,0.00,40.00,3,1,8,0.00
2013-9-12,80,66,56,63,59,56,99,81,53,0.00,40.00,4,2,11,0.00
2013-9-13,66,61,56,61,59,56,100,94,83,0.00,40.00,3,1,8,0.00
2013-9-14,68,62,60,61,59,-100,100,93,79,0.00,40.00,2,1,9,0.00
2013-9-15,64,61,56,62,60,56,100,96,83,0.00,40.00,5,2,11,0.26
2013-9-16,66,61,57,61,58,49,100,88,72,0.00,40.00,6,2,22,0.42
2013-9-17,64,59,55,55,52,50,95,80,66,0.00,40.00,4,1,8,0.04
2013-9-18,57,55,51,55,52,50,99,91,83,0.00,40.00,3,1,9,0.13
2013-9-19,81,62,50,57,51,48,100,72,34,0.00,40.00,3,1,11,0.04
2013-9-20,75,63,53,55,50,46,88,64,40,0.00,40.00,4,2,11,0.02
2013-9-21,66,60,57,57,53,-100,100,81,64,0.00,40.00,4,2,10,0.07
2013-9-22,62,57,53,55,52,47,97,82,68,0.00,40.00,7,3,22,0.21
2013-9-23,58,55,49,55,52,48,100,90,70,0.00,40.00,5,2,15,0.46
2013-9-24,63,53,48,53,49,46,100,89,54,0.00,40.00,4,1,11,0.11
2013-9-25,62,53,45,51,48,44,100,85,60,0.00,40.00,4,2,16,0.05
2013-9-26,64,51,42,49,45,42,100,84,54,0.00,40.00,4,1,10,0.00
2013-9-27,51,49,46,50,48,46,100,97,87,0.00,40.00,5,2,13,0.44
2013-9-28,61,53,49,58,50,-100,100,94,79,0.00,40.00,10,4,30,1.91
2013-9-29,57,54,51,51,47,44,97,76,66,0.00,40.00,9,6,29,1.39
2013-9-30,54,51,49,52,48,43,100,87,74,0.00,40.00,8,3,22,1.27
2013-10-1,56,50,48,47,46,44,94,84,70,0.00,40.00,2,2,11,0.72
2013-10-2,52,48,46,50,47,45,100,98,89,0.00,40.00,3,1,10,0.71
2013-10-3,59,49,42,48,45,42,100,89,63,0.00,40.00,2,1,7,0.01
2013-10-4,64,50,39,51,45,39,100,85,50,0.00,40.00,3,1,7,0.00
2013-10-5,69,57,50,53,49,44,99,77,54,0.00,40.00,3,1,7,0.00
2013-10-6,73,56,46,52,46,36,100,74,28,0.00,40.00,7,3,20,0.00
2013-10-7,62,55,50,52,49,43,100,81,50,0.00,40.00,7,3,20,0.78
2013-10-8,59,51,42,50,46,42,100,85,60,0.00,40.00,4,2,13,0.69
2013-10-9,60,47,37,46,42,37,100,85,56,0.00,40.00,2,1,9,0.01
2013-10-10,57,49,42,49,46,42,100,89,72,0.00,40.00,2,1,6,0.02
2013-10-11,58,47,39,47,44,39,100,90,63,0.00,40.00,3,1,6,0.02
2013-10-12,59,50,43,49,46,-100,100,89,68,0.00,40.00,5,1,12,0.00
2013-10-13,59,46,36,47,43,36,100,89,59,0.00,40.00,3,1,9,0.00
2013-10-14,60,46,36,48,42,36,100,90,64,0.00,40.00,2,1,8,0.00
2013-10-15,63,48,40,49,44,40,100,89,56,0.00,40.00,2,1,9,0.01
2013-10-16,55,48,41,50,46,41,100,96,81,0.00,40.00,2,1,9,0.01
2013-10-17,59,50,43,50,47,43,100,91,71,0.00,40.00,3,1,8,0.00
2013-10-18,58,46,36,49,44,36,100,94,72,0.00,40.00,3,1,8,0.00
2013-10-19,51,44,37,49,42,-100,100,97,89,0.00,40.00,2,1,6,0.00
2013-10-20,50,47,45,48,46,45,100,97,88,0.00,40.00,2,1,6,0.01
2013-10-21,52,48,45,49,47,45,100,98,90,0.00,40.00,2,0,5,0.01
2013-10-22,51,46,42,50,46,42,100,100,96,0.00,40.00,2,1,5,0.00
2013-10-23,63,46,37,52,45,37,100,95,64,0.00,40.00,2,1,6,0.01
2013-10-24,54,44,36,50,43,36,100,99,84,0.00,40.00,4,1,9,0.00
2013-10-25,54,49,45,50,48,45,100,95,81,0.00,40.00,2,0,5,0.01
2013-10-26,57,50,45,49,46,-100,100,88,70,0.00,40.00,2,0,8,0.00
2013-10-27,64,52,47,51,47,40,100,86,51,0.00,40.00,6,2,14,0.18
2013-10-28,61,52,43,33,28,-100,66,42,28,0.00,40.00,7,4,20,0.02
2013-10-29,59,44,33,37,34,31,94,72,41,0.00,40.00,3,1,7,0.00
2013-10-30,59,45,35,47,38,34,100,80,50,0.00,40.00,2,1,8,0.02
2013-10-31,53,49,46,52,49,45,100,99,87,0.00,40.00,2,0,8,0.37
2013-11-1,55,52,49,51,49,48,100,92,81,0.00,40.00,3,1,8,0.01
2013-11-2,54,46,41,50,44,-100,100,95,72,0.00,40.00,12,3,36,1.49
2013-11-3,53,42,33,47,40,33,100,96,64,0.00,40.00,3,1,8,0.73
2013-11-4,50,40,32,39,35,32,100,84,57,0.00,40.00,2,1,7,0.04
2013-11-5,45,42,39,45,41,38,100,98,89,0.00,40.00,4,1,12,0.30
2013-11-6,52,46,41,46,42,37,100,85,60,0.00,40.00,5,1,17,0.01
2013-11-7,52,48,45,49,45,41,100,91,67,0.00,40.00,12,4,28,0.74
2013-11-8,54,48,44,46,43,41,100,86,64,0.00,40.00,3,1,9,0.28
2013-11-9,50,44,38,44,40,-100,100,88,67,0.00,40.00,2,1,6,0.00
2013-11-10,49,46,43,46,44,43,100,96,88,0.00,40.00,2,0,5,0.03
2013-11-11,59,51,45,47,44,41,91,77,61,0.00,40.00,3,1,8,0.01
2013-11-12,57,54,51,52,48,41,97,80,64,0.00,40.00,5,3,18,0.05
2013-11-13,55,52,48,51,49,47,100,92,75,0.00,40.00,7,1,20,0.15
2013-11-14,51,46,40,48,45,40,100,97,74,0.00,40.00,3,1,11,0.21
2013-11-15,43,41,39,43,41,39,100,99,95,0.00,40.00,6,2,15,1.79
2013-11-16,48,43,42,43,37,-100,100,82,67,0.00,40.00,4,2,16,0.57
2013-11-17,43,41,39,43,40,37,100,94,78,0.00,40.00,4,1,13,0.30
2013-11-18,45,43,41,45,43,41,100,100,100,0.00,40.00,5,2,14,1.49
2013-11-19,46,42,34,44,32,18,100,72,34,0.00,40.00,5,2,16,0.99
2013-11-20,45,33,27,30,26,23,96,77,45,0.00,40.00,3,1,6,0.00
2013-11-21,43,31,25,28,25,23,95,80,49,0.00,40.00,3,1,7,0.01
2013-11-22,47,34,27,31,27,24,92,78,54,0.00,40.00,3,1,7,0.01
2013-11-23,50,36,28,37,31,-100,100,87,60,0.00,40.00,3,1,7,0.00
2013-11-24,50,37,30,39,35,30,100,92,64,0.00,40.00,3,1,6,0.00
2013-11-25,54,40,33,40,37,33,100,89,56,0.00,40.00,3,1,6,0.00
2013-11-26,55,41,32,38,35,32,100,81,49,0.00,40.00,3,1,6,0.00
2013-11-27,55,45,39,40,38,35,99,77,55,0.00,40.00,2,1,6,0.00
2013-11-28,56,44,36,43,39,36,100,85,57,0.00,40.00,2,1,5,0.00
2013-11-29,54,46,43,45,43,42,100,90,68,0.00,40.00,2,1,8,0.06
2013-11-30,45,44,43,45,43,-100,100,99,100,0.00,40.00,6,2,11,0.60
2013-12-1,51,46,40,49,45,32,100,97,72,0.00,40.00,7,3,25,0.93
2013-12-2,43,38,32,35,32,21,100,80,62,0.00,40.00,7,2,20,0.12
2013-12-3,40,32,27,21,17,16,68,55,39,0.00,40.00,7,3,16,0.03
2013-12-4,39,28,23,18,14,12,71,57,36,0.00,40.00,3,1,7,0.00
2013-12-5,34,26,22,18,14,13,73,61,44,0.00,40.00,2,1,8,0.00
2013-12-6,36,26,20,17,4,-3,73,40,26,0.00,40.00,9,3,21,0.00
2013-12-7,31,21,13,6,-1,-100,73,40,22,0.00,40.00,8,2,15,0.00
2013-12-8,34,23,13,14,11,6,80,63,38,0.00,40.00,2,1,5,0.00
2013-12-9,31,26,18,25,17,13,83,69,56,0.00,40.00,2,0,5,0.00
2013-12-10,35,32,29,31,29,25,96,91,82,0.00,40.00,2,1,5,0.00
2013-12-11,40,35,31,31,29,27,94,81,60,0.00,40.00,3,1,10,0.00
2013-12-12,49,39,31,41,34,29,100,84,53,0.00,40.00,5,2,17,0.13
2013-12-13,42,40,39,42,40,39,100,100,100,0.00,40.00,3,1,7,0.19
2013-12-14,46,43,41,45,41,-100,100,97,89,0.00,40.00,3,2,11,0.03
2013-12-15,48,45,43,48,45,43,100,100,100,0.00,40.00,3,1,8,0.17
2013-12-16,51,40,34,45,40,34,100,98,80,0.00,40.00,2,1,5,0.01
2013-12-17,43,37,32,43,37,32,100,100,100,0.00,40.00,3,1,7,0.02
2013-12-18,44,39,30,43,37,29,100,92,79,0.00,40.00,5,2,12,0.04
2013-12-19,37,31,27,29,24,22,95,77,59,0.00,40.00,3,1,7,0.01
2013-12-20,33,32,30,33,31,25,100,97,77,0.00,40.00,5,2,13,0.11
2013-12-21,38,35,33,38,34,-100,100,99,100,0.00,40.00,1,0,5,0.55
2013-12-22,41,38,36,41,38,36,100,100,100,0.00,40.00,4,2,8,0.45
2013-12-23,49,44,41,46,42,40,100,96,79,0.00,40.00,6,2,15,1.12
2013-12-24,46,41,33,44,40,33,100,97,91,0.00,40.00,2,0,5,0.02
2013-12-25,42,36,31,39,35,31,100,96,78,0.00,40.00,2,1,5,0.01
2013-12-26,51,41,37,43,40,37,100,95,73,0.00,40.00,3,1,6,0.02
2013-12-27,45,41,35,45,41,35,100,100,100,0.00,40.00,4,1,11,0.20
2013-12-28,45,42,39,45,41,-100,100,99,100,0.00,40.00,2,0,7,0.01
2013-12-29,42,39,37,42,39,37,100,100,99,0.00,40.00,3,1,10,0.03
2013-12-30,45,41,39,44,41,39,100,99,93,0.00,40.00,3,1,7,0.08
2013-12-31,45,43,41,45,43,41,100,100,100,0.00,40.00,2,0,6,0.18
2014-1-1,46,42,37,45,42,37,100,99,88,0.00,40.00,3,1,7,0.01
2014-1-2,47,44,42,47,44,41,100,100,94,0.00,40.00,5,2,15,1.36